Terminal Aerodrome Forecast
Issued by NWS

Home | Current Version | Previous Version | Text Only | Print | Product List | Glossary On
Versions: 1 2 3 4 5 6 7 8 9 10 11 12 13 14 15 16
666
FTUS42 KTAE 060520
TAFABY
TAF
KABY 060520Z 0606/0706 32005KT P6SM SKC
     FM061400 32012G18KT P6SM SKC
     FM070000 32005KT P6SM SKC=

USA.gov is the U.S. government's official web portal to all federal, state and local government web resources and services.